sensor_id;sensor_type;location;lat;lon;timestamp;P1;durP1;ratioP1;P2;durP2;ratioP2
39888;SDS011;25563;50.844;4.308;2022-08-19T00:00:06;22.55;;;20.90;;
39888;SDS011;25563;50.844;4.308;2022-08-19T00:02:34;23.55;;;21.67;;
39888;SDS011;25563;50.844;4.308;2022-08-19T00:05:00;24.77;;;22.65;;
39888;SDS011;25563;50.844;4.308;2022-08-19T00:07:26;28.27;;;25.50;;
39888;SDS011;25563;50.844;4.308;2022-08-19T00:09:53;29.00;;;26.52;;
39888;SDS011;25563;50.844;4.308;2022-08-19T00:12:19;36.80;;;28.42;;
39888;SDS011;25563;50.844;4.308;2022-08-19T00:14:44;36.38;;;31.30;;
39888;SDS011;25563;50.844;4.308;2022-08-19T00:17:12;33.70;;;30.27;;
39888;SDS011;25563;50.844;4.308;2022-08-19T00:19:38;42.45;;;34.40;;
39888;SDS011;25563;50.844;4.308;2022-08-19T00:22:07;36.40;;;31.67;;
39888;SDS011;25563;50.844;4.308;2022-08-19T00:24:33;45.65;;;35.95;;
39888;SDS011;25563;50.844;4.308;2022-08-19T00:27:00;45.80;;;34.53;;
39888;SDS011;25563;50.844;4.308;2022-08-19T00:29:27;42.15;;;34.70;;
39888;SDS011;25563;50.844;4.308;2022-08-19T00:31:53;50.65;;;36.67;;
39888;SDS011;25563;50.844;4.308;2022-08-19T00:34:21;47.50;;;38.28;;
39888;SDS011;25563;50.844;4.308;2022-08-19T00:36:47;53.13;;;40.03;;
39888;SDS011;25563;50.844;4.308;2022-08-19T00:39:14;51.10;;;41.10;;
39888;SDS011;25563;50.844;4.308;2022-08-19T00:41:41;51.25;;;40.13;;
39888;SDS011;25563;50.844;4.308;2022-08-19T00:44:16;49.28;;;40.13;;
39888;SDS011;25563;50.844;4.308;2022-08-19T00:49:16;56.03;;;40.88;;
39888;SDS011;25563;50.844;4.308;2022-08-19T00:52:23;58.50;;;42.45;;
39888;SDS011;25563;50.844;4.308;2022-08-19T00:54:54;56.13;;;42.63;;
39888;SDS011;25563;50.844;4.308;2022-08-19T00:57:22;61.78;;;45.45;;
39888;SDS011;25563;50.844;4.308;2022-08-19T00:59:53;58.53;;;44.92;;
39888;SDS011;25563;50.844;4.308;2022-08-19T01:02:21;55.53;;;43.70;;
39888;SDS011;25563;50.844;4.308;2022-08-19T01:04:47;57.40;;;43.50;;
39888;SDS011;25563;50.844;4.308;2022-08-19T01:07:13;58.13;;;44.55;;
39888;SDS011;25563;50.844;4.308;2022-08-19T01:09:38;54.10;;;42.30;;
39888;SDS011;25563;50.844;4.308;2022-08-19T01:12:04;60.40;;;44.15;;
39888;SDS011;25563;50.844;4.308;2022-08-19T01:14:32;54.45;;;41.55;;
39888;SDS011;25563;50.844;4.308;2022-08-19T01:16:58;51.13;;;41.05;;
39888;SDS011;25563;50.844;4.308;2022-08-19T01:19:34;56.67;;;43.67;;
39888;SDS011;25563;50.844;4.308;2022-08-19T01:25:01;54.45;;;42.83;;
39888;SDS011;25563;50.844;4.308;2022-08-19T01:27:36;46.63;;;40.58;;
39888;SDS011;25563;50.844;4.308;2022-08-19T01:30:07;61.78;;;41.22;;
39888;SDS011;25563;50.844;4.308;2022-08-19T01:32:34;52.05;;;40.70;;
39888;SDS011;25563;50.844;4.308;2022-08-19T01:35:01;49.15;;;39.38;;
39888;SDS011;25563;50.844;4.308;2022-08-19T01:37:29;48.90;;;37.40;;
39888;SDS011;25563;50.844;4.308;2022-08-19T01:39:55;45.17;;;37.08;;
39888;SDS011;25563;50.844;4.308;2022-08-19T01:42:31;41.15;;;35.53;;
39888;SDS011;25563;50.844;4.308;2022-08-19T01:45:04;40.95;;;35.80;;
39888;SDS011;25563;50.844;4.308;2022-08-19T01:47:30;43.60;;;35.03;;
39888;SDS011;25563;50.844;4.308;2022-08-19T01:49:57;41.55;;;34.60;;
39888;SDS011;25563;50.844;4.308;2022-08-19T01:52:23;43.47;;;35.63;;
39888;SDS011;25563;50.844;4.308;2022-08-19T01:54:49;44.45;;;36.58;;
39888;SDS011;25563;50.844;4.308;2022-08-19T01:57:14;38.03;;;31.58;;
39888;SDS011;25563;50.844;4.308;2022-08-19T01:59:41;36.22;;;32.40;;
39888;SDS011;25563;50.844;4.308;2022-08-19T02:02:10;34.83;;;30.40;;
39888;SDS011;25563;50.844;4.308;2022-08-19T02:04:40;33.20;;;29.08;;
39888;SDS011;25563;50.844;4.308;2022-08-19T02:07:06;32.67;;;26.65;;
39888;SDS011;25563;50.844;4.308;2022-08-19T02:09:33;28.38;;;25.48;;
39888;SDS011;25563;50.844;4.308;2022-08-19T02:11:59;33.40;;;27.77;;
39888;SDS011;25563;50.844;4.308;2022-08-19T02:14:25;32.22;;;28.92;;
39888;SDS011;25563;50.844;4.308;2022-08-19T02:16:52;39.85;;;32.25;;
39888;SDS011;25563;50.844;4.308;2022-08-19T02:19:18;40.55;;;33.47;;
39888;SDS011;25563;50.844;4.308;2022-08-19T02:21:43;38.50;;;34.30;;
39888;SDS011;25563;50.844;4.308;2022-08-19T02:24:09;38.00;;;33.90;;
39888;SDS011;25563;50.844;4.308;2022-08-19T02:26:35;37.38;;;33.17;;
39888;SDS011;25563;50.844;4.308;2022-08-19T02:29:01;37.15;;;32.55;;
39888;SDS011;25563;50.844;4.308;2022-08-19T02:31:27;37.92;;;32.95;;
39888;SDS011;25563;50.844;4.308;2022-08-19T02:33:53;39.30;;;34.03;;
39888;SDS011;25563;50.844;4.308;2022-08-19T02:36:23;37.75;;;32.70;;
39888;SDS011;25563;50.844;4.308;2022-08-19T02:39:02;43.00;;;32.13;;
39888;SDS011;25563;50.844;4.308;2022-08-19T02:41:31;40.33;;;33.45;;
39888;SDS011;25563;50.844;4.308;2022-08-19T02:43:59;36.20;;;32.22;;
39888;SDS011;25563;50.844;4.308;2022-08-19T02:46:28;38.93;;;32.80;;
39888;SDS011;25563;50.844;4.308;2022-08-19T02:48:57;35.97;;;32.17;;
39888;SDS011;25563;50.844;4.308;2022-08-19T02:51:30;39.80;;;34.25;;
39888;SDS011;25563;50.844;4.308;2022-08-19T02:53:58;42.17;;;34.75;;
39888;SDS011;25563;50.844;4.308;2022-08-19T02:56:25;39.50;;;34.47;;
39888;SDS011;25563;50.844;4.308;2022-08-19T02:58:52;39.42;;;33.85;;
39888;SDS011;25563;50.844;4.308;2022-08-19T03:01:23;37.35;;;32.30;;
39888;SDS011;25563;50.844;4.308;2022-08-19T03:03:57;40.63;;;32.95;;
39888;SDS011;25563;50.844;4.308;2022-08-19T03:06:25;33.45;;;29.88;;
39888;SDS011;25563;50.844;4.308;2022-08-19T03:08:51;35.33;;;30.02;;
39888;SDS011;25563;50.844;4.308;2022-08-19T03:13:50;36.17;;;31.25;;
39888;SDS011;25563;50.844;4.308;2022-08-19T03:16:19;41.42;;;30.77;;
39888;SDS011;25563;50.844;4.308;2022-08-19T03:18:46;34.25;;;28.63;;
39888;SDS011;25563;50.844;4.308;2022-08-19T03:21:32;35.50;;;29.08;;
39888;SDS011;25563;50.844;4.308;2022-08-19T03:24:00;34.92;;;27.63;;
39888;SDS011;25563;50.844;4.308;2022-08-19T03:28:55;31.73;;;27.92;;
39888;SDS011;25563;50.844;4.308;2022-08-19T03:31:21;43.83;;;27.88;;
39888;SDS011;25563;50.844;4.308;2022-08-19T03:33:48;32.97;;;27.58;;
39888;SDS011;25563;50.844;4.308;2022-08-19T03:36:21;35.38;;;27.70;;
39888;SDS011;25563;50.844;4.308;2022-08-19T03:38:51;34.03;;;27.67;;
39888;SDS011;25563;50.844;4.308;2022-08-19T03:41:26;32.33;;;27.42;;
39888;SDS011;25563;50.844;4.308;2022-08-19T03:43:57;32.45;;;26.40;;
39888;SDS011;25563;50.844;4.308;2022-08-19T03:46:25;38.58;;;27.20;;
39888;SDS011;25563;50.844;4.308;2022-08-19T03:48:54;39.70;;;28.35;;
39888;SDS011;25563;50.844;4.308;2022-08-19T03:51:22;39.95;;;29.08;;
39888;SDS011;25563;50.844;4.308;2022-08-19T03:53:50;31.50;;;26.85;;
39888;SDS011;25563;50.844;4.308;2022-08-19T03:56:17;29.65;;;26.45;;
39888;SDS011;25563;50.844;4.308;2022-08-19T03:58:43;35.50;;;28.27;;
39888;SDS011;25563;50.844;4.308;2022-08-19T04:01:11;33.15;;;26.17;;
39888;SDS011;25563;50.844;4.308;2022-08-19T04:03:38;35.95;;;26.25;;
39888;SDS011;25563;50.844;4.308;2022-08-19T04:08:46;37.10;;;27.85;;
39888;SDS011;25563;50.844;4.308;2022-08-19T04:11:15;43.05;;;27.20;;
39888;SDS011;25563;50.844;4.308;2022-08-19T04:13:43;45.88;;;28.52;;
39888;SDS011;25563;50.844;4.308;2022-08-19T04:16:10;32.17;;;28.25;;
39888;SDS011;25563;50.844;4.308;2022-08-19T04:18:36;35.13;;;26.90;;
39888;SDS011;25563;50.844;4.308;2022-08-19T04:21:04;35.80;;;27.17;;
39888;SDS011;25563;50.844;4.308;2022-08-19T04:23:31;33.55;;;26.60;;
39888;SDS011;25563;50.844;4.308;2022-08-19T04:25:57;38.30;;;27.33;;
39888;SDS011;25563;50.844;4.308;2022-08-19T04:28:24;33.33;;;26.30;;
39888;SDS011;25563;50.844;4.308;2022-08-19T04:30:53;41.53;;;26.80;;
39888;SDS011;25563;50.844;4.308;2022-08-19T04:33:20;35.70;;;26.02;;
39888;SDS011;25563;50.844;4.308;2022-08-19T04:35:48;34.47;;;25.55;;
39888;SDS011;25563;50.844;4.308;2022-08-19T04:38:16;32.47;;;26.55;;
39888;SDS011;25563;50.844;4.308;2022-08-19T04:40:47;32.83;;;25.42;;
39888;SDS011;25563;50.844;4.308;2022-08-19T04:43:34;30.65;;;24.77;;
39888;SDS011;25563;50.844;4.308;2022-08-19T04:46:06;34.65;;;24.55;;
39888;SDS011;25563;50.844;4.308;2022-08-19T04:48:37;32.67;;;25.27;;
39888;SDS011;25563;50.844;4.308;2022-08-19T04:51:06;30.45;;;24.00;;
39888;SDS011;25563;50.844;4.308;2022-08-19T04:53:38;33.53;;;24.83;;
39888;SDS011;25563;50.844;4.308;2022-08-19T04:56:08;29.48;;;24.92;;
39888;SDS011;25563;50.844;4.308;2022-08-19T04:58:41;36.95;;;22.13;;
39888;SDS011;25563;50.844;4.308;2022-08-19T05:01:08;34.72;;;24.30;;
39888;SDS011;25563;50.844;4.308;2022-08-19T05:03:43;30.92;;;23.20;;
39888;SDS011;25563;50.844;4.308;2022-08-19T05:06:09;35.70;;;23.13;;
39888;SDS011;25563;50.844;4.308;2022-08-19T05:08:37;31.05;;;23.92;;
39888;SDS011;25563;50.844;4.308;2022-08-19T05:13:51;39.97;;;25.05;;
39888;SDS011;25563;50.844;4.308;2022-08-19T05:16:18;33.92;;;23.83;;
39888;SDS011;25563;50.844;4.308;2022-08-19T05:18:44;35.75;;;23.55;;
39888;SDS011;25563;50.844;4.308;2022-08-19T05:21:29;34.97;;;26.88;;
39888;SDS011;25563;50.844;4.308;2022-08-19T05:24:14;32.35;;;25.63;;
39888;SDS011;25563;50.844;4.308;2022-08-19T05:26:45;40.20;;;25.85;;
39888;SDS011;25563;50.844;4.308;2022-08-19T05:29:14;38.22;;;26.75;;
39888;SDS011;25563;50.844;4.308;2022-08-19T05:31:43;46.53;;;29.67;;
39888;SDS011;25563;50.844;4.308;2022-08-19T05:34:09;37.13;;;28.30;;
39888;SDS011;25563;50.844;4.308;2022-08-19T05:36:39;41.78;;;27.85;;
39888;SDS011;25563;50.844;4.308;2022-08-19T05:39:08;38.65;;;26.98;;
39888;SDS011;25563;50.844;4.308;2022-08-19T05:41:36;37.03;;;28.25;;
39888;SDS011;25563;50.844;4.308;2022-08-19T05:44:05;37.38;;;26.83;;
39888;SDS011;25563;50.844;4.308;2022-08-19T05:46:34;35.75;;;25.38;;
39888;SDS011;25563;50.844;4.308;2022-08-19T05:49:02;31.73;;;23.95;;
39888;SDS011;25563;50.844;4.308;2022-08-19T05:51:29;27.02;;;21.67;;
39888;SDS011;25563;50.844;4.308;2022-08-19T05:53:55;32.90;;;22.20;;
39888;SDS011;25563;50.844;4.308;2022-08-19T05:56:20;31.13;;;22.13;;
39888;SDS011;25563;50.844;4.308;2022-08-19T05:58:46;25.38;;;20.90;;
39888;SDS011;25563;50.844;4.308;2022-08-19T06:01:13;28.45;;;20.92;;
39888;SDS011;25563;50.844;4.308;2022-08-19T06:03:42;30.60;;;20.13;;
39888;SDS011;25563;50.844;4.308;2022-08-19T06:06:08;24.30;;;19.15;;
39888;SDS011;25563;50.844;4.308;2022-08-19T06:08:36;23.30;;;18.25;;
39888;SDS011;25563;50.844;4.308;2022-08-19T06:14:03;21.40;;;18.00;;
39888;SDS011;25563;50.844;4.308;2022-08-19T06:16:37;27.80;;;17.83;;
39888;SDS011;25563;50.844;4.308;2022-08-19T06:19:05;24.50;;;17.17;;
39888;SDS011;25563;50.844;4.308;2022-08-19T06:21:33;28.77;;;17.40;;
39888;SDS011;25563;50.844;4.308;2022-08-19T06:24:02;26.67;;;16.73;;
39888;SDS011;25563;50.844;4.308;2022-08-19T06:26:31;23.52;;;15.65;;
39888;SDS011;25563;50.844;4.308;2022-08-19T06:28:59;27.48;;;16.70;;
39888;SDS011;25563;50.844;4.308;2022-08-19T06:31:28;19.80;;;14.07;;
39888;SDS011;25563;50.844;4.308;2022-08-19T06:33:56;24.00;;;14.25;;
39888;SDS011;25563;50.844;4.308;2022-08-19T06:38:57;15.63;;;12.60;;
39888;SDS011;25563;50.844;4.308;2022-08-19T06:41:26;17.75;;;12.68;;
39888;SDS011;25563;50.844;4.308;2022-08-19T06:43:53;14.15;;;12.40;;
39888;SDS011;25563;50.844;4.308;2022-08-19T06:46:20;20.15;;;11.90;;
39888;SDS011;25563;50.844;4.308;2022-08-19T06:48:47;16.15;;;11.30;;
39888;SDS011;25563;50.844;4.308;2022-08-19T06:51:14;11.43;;;10.43;;
39888;SDS011;25563;50.844;4.308;2022-08-19T06:53:43;16.42;;;10.82;;
39888;SDS011;25563;50.844;4.308;2022-08-19T06:56:12;23.10;;;10.48;;
39888;SDS011;25563;50.844;4.308;2022-08-19T06:58:39;15.10;;;10.60;;
39888;SDS011;25563;50.844;4.308;2022-08-19T07:01:05;14.13;;;10.50;;
39888;SDS011;25563;50.844;4.308;2022-08-19T07:03:32;12.10;;;10.57;;
39888;SDS011;25563;50.844;4.308;2022-08-19T07:06:07;13.80;;;10.90;;
39888;SDS011;25563;50.844;4.308;2022-08-19T07:08:37;16.77;;;10.65;;
39888;SDS011;25563;50.844;4.308;2022-08-19T07:11:07;11.50;;;10.20;;
39888;SDS011;25563;50.844;4.308;2022-08-19T07:13:34;19.70;;;11.07;;
39888;SDS011;25563;50.844;4.308;2022-08-19T07:16:10;13.05;;;10.23;;
39888;SDS011;25563;50.844;4.308;2022-08-19T07:18:38;18.13;;;9.43;;
39888;SDS011;25563;50.844;4.308;2022-08-19T07:21:21;12.02;;;10.32;;
39888;SDS011;25563;50.844;4.308;2022-08-19T07:23:51;12.48;;;8.43;;
39888;SDS011;25563;50.844;4.308;2022-08-19T07:29:10;13.45;;;9.60;;
39888;SDS011;25563;50.844;4.308;2022-08-19T07:31:46;11.80;;;8.85;;
39888;SDS011;25563;50.844;4.308;2022-08-19T07:34:12;10.20;;;9.00;;
39888;SDS011;25563;50.844;4.308;2022-08-19T07:36:39;11.82;;;9.15;;
39888;SDS011;25563;50.844;4.308;2022-08-19T07:39:08;16.10;;;8.93;;
39888;SDS011;25563;50.844;4.308;2022-08-19T07:41:39;14.38;;;8.30;;
39888;SDS011;25563;50.844;4.308;2022-08-19T07:44:06;8.57;;;7.75;;
39888;SDS011;25563;50.844;4.308;2022-08-19T07:46:35;9.30;;;8.13;;
39888;SDS011;25563;50.844;4.308;2022-08-19T07:49:04;9.00;;;8.20;;
39888;SDS011;25563;50.844;4.308;2022-08-19T07:51:31;10.57;;;8.45;;
39888;SDS011;25563;50.844;4.308;2022-08-19T07:53:57;9.13;;;8.05;;
39888;SDS011;25563;50.844;4.308;2022-08-19T07:56:23;9.02;;;8.15;;
39888;SDS011;25563;50.844;4.308;2022-08-19T07:58:49;13.30;;;7.70;;
39888;SDS011;25563;50.844;4.308;2022-08-19T08:01:19;16.05;;;8.55;;
39888;SDS011;25563;50.844;4.308;2022-08-19T08:03:47;11.77;;;9.05;;
39888;SDS011;25563;50.844;4.308;2022-08-19T08:06:33;11.77;;;8.10;;
39888;SDS011;25563;50.844;4.308;2022-08-19T08:09:19;10.32;;;7.65;;
39888;SDS011;25563;50.844;4.308;2022-08-19T08:14:35;7.72;;;7.07;;
39888;SDS011;25563;50.844;4.308;2022-08-19T08:17:05;8.00;;;6.88;;
39888;SDS011;25563;50.844;4.308;2022-08-19T08:19:31;7.25;;;6.57;;
39888;SDS011;25563;50.844;4.308;2022-08-19T08:21:58;11.48;;;6.90;;
39888;SDS011;25563;50.844;4.308;2022-08-19T08:24:26;7.38;;;6.60;;
39888;SDS011;25563;50.844;4.308;2022-08-19T08:26:53;6.70;;;6.18;;
39888;SDS011;25563;50.844;4.308;2022-08-19T08:29:22;7.97;;;7.22;;
39888;SDS011;25563;50.844;4.308;2022-08-19T08:31:48;7.20;;;6.50;;
39888;SDS011;25563;50.844;4.308;2022-08-19T08:34:14;7.97;;;7.20;;
39888;SDS011;25563;50.844;4.308;2022-08-19T08:36:41;9.57;;;6.38;;
39888;SDS011;25563;50.844;4.308;2022-08-19T08:39:10;8.10;;;6.82;;
39888;SDS011;25563;50.844;4.308;2022-08-19T08:44:22;7.88;;;6.22;;
39888;SDS011;25563;50.844;4.308;2022-08-19T08:46:55;7.28;;;5.38;;
39888;SDS011;25563;50.844;4.308;2022-08-19T08:49:26;8.00;;;7.05;;
39888;SDS011;25563;50.844;4.308;2022-08-19T08:52:05;6.45;;;5.90;;
39888;SDS011;25563;50.844;4.308;2022-08-19T08:54:43;8.20;;;5.97;;
39888;SDS011;25563;50.844;4.308;2022-08-19T08:57:14;8.60;;;6.18;;
39888;SDS011;25563;50.844;4.308;2022-08-19T08:59:45;7.15;;;6.13;;
39888;SDS011;25563;50.844;4.308;2022-08-19T09:02:16;6.53;;;5.75;;
39888;SDS011;25563;50.844;4.308;2022-08-19T09:04:43;6.28;;;5.75;;
39888;SDS011;25563;50.844;4.308;2022-08-19T09:09:52;7.40;;;5.75;;
39888;SDS011;25563;50.844;4.308;2022-08-19T09:15:10;7.45;;;5.57;;
39888;SDS011;25563;50.844;4.308;2022-08-19T09:17:38;5.47;;;4.97;;
39888;SDS011;25563;50.844;4.308;2022-08-19T09:22:43;8.77;;;5.20;;
39888;SDS011;25563;50.844;4.308;2022-08-19T09:25:11;6.60;;;6.03;;
39888;SDS011;25563;50.844;4.308;2022-08-19T09:27:40;5.95;;;5.45;;
39888;SDS011;25563;50.844;4.308;2022-08-19T09:30:08;5.80;;;4.97;;
39888;SDS011;25563;50.844;4.308;2022-08-19T09:32:40;5.20;;;4.70;;
39888;SDS011;25563;50.844;4.308;2022-08-19T09:35:07;5.20;;;4.72;;
39888;SDS011;25563;50.844;4.308;2022-08-19T09:37:34;5.32;;;4.85;;
39888;SDS011;25563;50.844;4.308;2022-08-19T09:40:00;5.90;;;5.47;;
39888;SDS011;25563;50.844;4.308;2022-08-19T09:42:26;5.30;;;4.80;;
39888;SDS011;25563;50.844;4.308;2022-08-19T09:44:52;7.15;;;5.30;;
39888;SDS011;25563;50.844;4.308;2022-08-19T09:47:18;6.28;;;4.95;;
39888;SDS011;25563;50.844;4.308;2022-08-19T09:49:43;5.63;;;5.22;;
39888;SDS011;25563;50.844;4.308;2022-08-19T09:52:09;5.97;;;5.47;;
39888;SDS011;25563;50.844;4.308;2022-08-19T09:54:37;5.95;;;5.35;;
39888;SDS011;25563;50.844;4.308;2022-08-19T09:57:03;5.07;;;4.68;;
39888;SDS011;25563;50.844;4.308;2022-08-19T09:59:29;5.32;;;4.93;;
39888;SDS011;25563;50.844;4.308;2022-08-19T10:01:55;4.93;;;4.53;;
39888;SDS011;25563;50.844;4.308;2022-08-19T10:04:21;5.22;;;4.82;;
39888;SDS011;25563;50.844;4.308;2022-08-19T10:06:48;6.22;;;4.68;;
39888;SDS011;25563;50.844;4.308;2022-08-19T10:09:17;7.60;;;4.63;;
39888;SDS011;25563;50.844;4.308;2022-08-19T10:11:51;4.80;;;4.40;;
39888;SDS011;25563;50.844;4.308;2022-08-19T10:14:17;5.43;;;5.03;;
39888;SDS011;25563;50.844;4.308;2022-08-19T10:19:16;7.00;;;4.88;;
39888;SDS011;25563;50.844;4.308;2022-08-19T10:21:42;6.03;;;5.53;;
39888;SDS011;25563;50.844;4.308;2022-08-19T10:24:13;6.28;;;4.75;;
39888;SDS011;25563;50.844;4.308;2022-08-19T10:26:40;6.60;;;5.80;;
39888;SDS011;25563;50.844;4.308;2022-08-19T10:29:12;9.30;;;6.38;;
39888;SDS011;25563;50.844;4.308;2022-08-19T10:31:44;7.53;;;7.00;;
39888;SDS011;25563;50.844;4.308;2022-08-19T10:34:11;7.80;;;7.05;;
39888;SDS011;25563;50.844;4.308;2022-08-19T10:36:37;6.47;;;5.88;;
39888;SDS011;25563;50.844;4.308;2022-08-19T10:39:05;7.68;;;5.90;;
39888;SDS011;25563;50.844;4.308;2022-08-19T10:41:38;6.43;;;5.93;;
39888;SDS011;25563;50.844;4.308;2022-08-19T10:44:14;7.13;;;6.63;;
39888;SDS011;25563;50.844;4.308;2022-08-19T10:46:44;6.72;;;6.10;;
39888;SDS011;25563;50.844;4.308;2022-08-19T10:49:25;7.13;;;6.53;;
39888;SDS011;25563;50.844;4.308;2022-08-19T10:51:51;6.85;;;6.35;;
39888;SDS011;25563;50.844;4.308;2022-08-19T10:54:38;7.22;;;6.65;;
39888;SDS011;25563;50.844;4.308;2022-08-19T10:57:26;7.68;;;6.85;;
39888;SDS011;25563;50.844;4.308;2022-08-19T10:59:55;6.88;;;6.45;;
39888;SDS011;25563;50.844;4.308;2022-08-19T11:02:22;7.55;;;6.90;;
39888;SDS011;25563;50.844;4.308;2022-08-19T11:04:48;6.43;;;5.88;;
39888;SDS011;25563;50.844;4.308;2022-08-19T11:07:15;6.50;;;6.00;;
39888;SDS011;25563;50.844;4.308;2022-08-19T11:09:41;6.65;;;5.28;;
39888;SDS011;25563;50.844;4.308;2022-08-19T11:12:08;5.38;;;4.90;;
39888;SDS011;25563;50.844;4.308;2022-08-19T11:14:34;5.55;;;5.15;;
39888;SDS011;25563;50.844;4.308;2022-08-19T11:17:02;6.60;;;5.53;;
39888;SDS011;25563;50.844;4.308;2022-08-19T11:19:32;5.35;;;4.95;;
39888;SDS011;25563;50.844;4.308;2022-08-19T11:21:59;6.32;;;5.93;;
39888;SDS011;25563;50.844;4.308;2022-08-19T11:24:26;8.48;;;7.97;;
39888;SDS011;25563;50.844;4.308;2022-08-19T11:26:54;10.73;;;8.88;;
39888;SDS011;25563;50.844;4.308;2022-08-19T11:29:29;12.82;;;9.52;;
39888;SDS011;25563;50.844;4.308;2022-08-19T11:32:05;9.15;;;8.52;;
39888;SDS011;25563;50.844;4.308;2022-08-19T11:34:32;9.05;;;8.45;;
39888;SDS011;25563;50.844;4.308;2022-08-19T11:37:00;9.98;;;7.88;;
39888;SDS011;25563;50.844;4.308;2022-08-19T11:39:28;10.40;;;8.70;;
39888;SDS011;25563;50.844;4.308;2022-08-19T11:41:57;8.68;;;8.00;;
39888;SDS011;25563;50.844;4.308;2022-08-19T11:44:23;9.48;;;7.63;;
39888;SDS011;25563;50.844;4.308;2022-08-19T11:46:50;8.15;;;7.50;;
39888;SDS011;25563;50.844;4.308;2022-08-19T11:49:18;7.78;;;6.85;;
39888;SDS011;25563;50.844;4.308;2022-08-19T11:51:45;7.60;;;6.95;;
39888;SDS011;25563;50.844;4.308;2022-08-19T11:54:12;6.43;;;5.78;;
39888;SDS011;25563;50.844;4.308;2022-08-19T11:56:39;6.43;;;5.93;;
39888;SDS011;25563;50.844;4.308;2022-08-19T11:59:06;6.45;;;5.32;;
39888;SDS011;25563;50.844;4.308;2022-08-19T12:01:32;5.65;;;5.25;;
39888;SDS011;25563;50.844;4.308;2022-08-19T12:03:59;5.68;;;5.28;;
39888;SDS011;25563;50.844;4.308;2022-08-19T12:06:27;5.50;;;5.10;;
39888;SDS011;25563;50.844;4.308;2022-08-19T12:08:55;5.63;;;5.20;;
39888;SDS011;25563;50.844;4.308;2022-08-19T12:11:23;5.20;;;4.38;;
39888;SDS011;25563;50.844;4.308;2022-08-19T12:13:50;5.13;;;4.72;;
39888;SDS011;25563;50.844;4.308;2022-08-19T12:16:18;4.03;;;3.72;;
39888;SDS011;25563;50.844;4.308;2022-08-19T12:18:48;4.32;;;3.80;;
39888;SDS011;25563;50.844;4.308;2022-08-19T12:21:16;3.28;;;2.97;;
39888;SDS011;25563;50.844;4.308;2022-08-19T12:23:49;3.47;;;3.17;;
39888;SDS011;25563;50.844;4.308;2022-08-19T12:26:17;3.03;;;2.83;;
39888;SDS011;25563;50.844;4.308;2022-08-19T12:28:46;5.57;;;3.05;;
39888;SDS011;25563;50.844;4.308;2022-08-19T12:31:13;2.80;;;2.53;;
39888;SDS011;25563;50.844;4.308;2022-08-19T12:33:45;3.40;;;2.33;;
39888;SDS011;25563;50.844;4.308;2022-08-19T12:38:43;4.75;;;2.60;;
39888;SDS011;25563;50.844;4.308;2022-08-19T12:41:12;4.00;;;2.75;;
39888;SDS011;25563;50.844;4.308;2022-08-19T12:43:43;4.13;;;2.10;;
39888;SDS011;25563;50.844;4.308;2022-08-19T12:46:09;3.08;;;1.95;;
39888;SDS011;25563;50.844;4.308;2022-08-19T12:48:38;3.45;;;1.83;;
39888;SDS011;25563;50.844;4.308;2022-08-19T12:51:23;6.03;;;1.27;;
39888;SDS011;25563;50.844;4.308;2022-08-19T12:53:52;3.20;;;1.70;;
39888;SDS011;25563;50.844;4.308;2022-08-19T12:56:19;4.20;;;1.77;;
39888;SDS011;25563;50.844;4.308;2022-08-19T12:58:45;4.18;;;1.48;;
39888;SDS011;25563;50.844;4.308;2022-08-19T13:01:14;1.58;;;1.48;;
39888;SDS011;25563;50.844;4.308;2022-08-19T13:03:52;2.95;;;1.58;;
39888;SDS011;25563;50.844;4.308;2022-08-19T13:06:21;2.75;;;1.90;;
39888;SDS011;25563;50.844;4.308;2022-08-19T13:08:47;1.85;;;1.52;;
39888;SDS011;25563;50.844;4.308;2022-08-19T13:11:15;3.03;;;1.60;;
39888;SDS011;25563;50.844;4.308;2022-08-19T13:13:44;2.40;;;1.58;;
39888;SDS011;25563;50.844;4.308;2022-08-19T13:18:39;3.08;;;1.42;;
39888;SDS011;25563;50.844;4.308;2022-08-19T13:21:06;1.83;;;1.50;;
39888;SDS011;25563;50.844;4.308;2022-08-19T13:23:34;1.65;;;1.30;;
39888;SDS011;25563;50.844;4.308;2022-08-19T13:26:02;2.72;;;1.50;;
39888;SDS011;25563;50.844;4.308;2022-08-19T13:28:29;6.13;;;1.70;;
39888;SDS011;25563;50.844;4.308;2022-08-19T13:31:17;2.00;;;1.65;;
39888;SDS011;25563;50.844;4.308;2022-08-19T13:34:03;3.38;;;1.30;;
39888;SDS011;25563;50.844;4.308;2022-08-19T13:36:30;4.05;;;1.60;;
39888;SDS011;25563;50.844;4.308;2022-08-19T13:38:56;2.75;;;1.30;;
39888;SDS011;25563;50.844;4.308;2022-08-19T13:41:22;2.78;;;1.30;;
39888;SDS011;25563;50.844;4.308;2022-08-19T13:43:49;2.58;;;1.45;;
39888;SDS011;25563;50.844;4.308;2022-08-19T13:46:14;3.05;;;1.40;;
39888;SDS011;25563;50.844;4.308;2022-08-19T13:48:40;2.22;;;1.40;;
39888;SDS011;25563;50.844;4.308;2022-08-19T13:51:06;3.28;;;1.70;;
39888;SDS011;25563;50.844;4.308;2022-08-19T13:53:35;3.15;;;1.85;;
39888;SDS011;25563;50.844;4.308;2022-08-19T13:56:06;3.35;;;1.70;;
39888;SDS011;25563;50.844;4.308;2022-08-19T13:58:32;2.17;;;1.90;;
39888;SDS011;25563;50.844;4.308;2022-08-19T14:00:58;1.85;;;1.45;;
39888;SDS011;25563;50.844;4.308;2022-08-19T14:03:25;5.85;;;1.60;;
39888;SDS011;25563;50.844;4.308;2022-08-19T14:05:51;1.90;;;1.38;;
39888;SDS011;25563;50.844;4.308;2022-08-19T14:08:17;2.20;;;2.00;;
39888;SDS011;25563;50.844;4.308;2022-08-19T14:10:46;3.53;;;1.95;;
39888;SDS011;25563;50.844;4.308;2022-08-19T14:13:14;5.28;;;2.10;;
39888;SDS011;25563;50.844;4.308;2022-08-19T14:15:42;6.05;;;2.00;;
39888;SDS011;25563;50.844;4.308;2022-08-19T14:18:09;3.13;;;1.80;;
39888;SDS011;25563;50.844;4.308;2022-08-19T14:20:36;2.65;;;2.17;;
39888;SDS011;25563;50.844;4.308;2022-08-19T14:23:02;3.15;;;1.48;;
39888;SDS011;25563;50.844;4.308;2022-08-19T14:25:30;2.08;;;1.23;;
39888;SDS011;25563;50.844;4.308;2022-08-19T14:27:58;2.38;;;1.50;;
39888;SDS011;25563;50.844;4.308;2022-08-19T14:30:28;2.63;;;1.65;;
39888;SDS011;25563;50.844;4.308;2022-08-19T14:32:56;1.70;;;1.60;;
39888;SDS011;25563;50.844;4.308;2022-08-19T14:35:23;3.45;;;2.00;;
39888;SDS011;25563;50.844;4.308;2022-08-19T14:37:53;2.38;;;2.17;;
39888;SDS011;25563;50.844;4.308;2022-08-19T14:40:21;3.55;;;2.60;;
39888;SDS011;25563;50.844;4.308;2022-08-19T14:42:59;2.50;;;2.00;;
39888;SDS011;25563;50.844;4.308;2022-08-19T14:45:28;2.53;;;1.40;;
39888;SDS011;25563;50.844;4.308;2022-08-19T14:47:58;4.43;;;1.73;;
39888;SDS011;25563;50.844;4.308;2022-08-19T14:50:25;1.92;;;1.52;;
39888;SDS011;25563;50.844;4.308;2022-08-19T14:52:57;2.50;;;0.75;;
39888;SDS011;25563;50.844;4.308;2022-08-19T14:55:24;1.85;;;0.80;;
39888;SDS011;25563;50.844;4.308;2022-08-19T14:57:51;1.42;;;0.82;;
39888;SDS011;25563;50.844;4.308;2022-08-19T15:00:17;1.02;;;0.82;;
39888;SDS011;25563;50.844;4.308;2022-08-19T15:02:43;0.80;;;0.80;;
39888;SDS011;25563;50.844;4.308;2022-08-19T15:05:11;1.43;;;0.90;;
39888;SDS011;25563;50.844;4.308;2022-08-19T15:07:37;1.30;;;0.70;;
39888;SDS011;25563;50.844;4.308;2022-08-19T15:10:07;1.48;;;0.70;;
39888;SDS011;25563;50.844;4.308;2022-08-19T15:12:34;1.80;;;0.90;;
39888;SDS011;25563;50.844;4.308;2022-08-19T15:15:01;0.80;;;0.60;;
39888;SDS011;25563;50.844;4.308;2022-08-19T15:17:27;0.77;;;0.60;;
39888;SDS011;25563;50.844;4.308;2022-08-19T15:19:55;0.73;;;0.70;;
39888;SDS011;25563;50.844;4.308;2022-08-19T15:22:21;2.15;;;0.70;;
39888;SDS011;25563;50.844;4.308;2022-08-19T15:24:50;1.85;;;1.00;;
39888;SDS011;25563;50.844;4.308;2022-08-19T15:27:15;1.77;;;1.10;;